createdAt,value
2023-03-29T10:14:38.441Z,63.22
2023-03-29T10:15:42.004Z,63.48
2023-03-29T10:16:47.885Z,62.88
2023-03-29T10:17:58.911Z,64.18
2023-03-29T10:19:17.786Z,63.81
2023-03-29T10:20:22.009Z,63.36
2023-03-29T10:21:25.642Z,62.66
2023-03-29T10:22:34.790Z,62.69
2023-03-29T10:23:39.480Z,63.14
2023-03-29T10:24:50.150Z,62.85
2023-03-29T10:25:53.293Z,63.08
2023-03-29T10:27:01.818Z,64.15
2023-03-29T10:28:08.968Z,63.95
2023-03-29T10:29:14.611Z,63.57
2023-03-29T10:30:25.418Z,63.34
2023-03-29T10:31:33.321Z,62.99
2023-03-29T10:32:38.017Z,63.13
2023-03-29T10:33:41.977Z,62.75
2023-03-29T10:34:47.213Z,62.62
2023-03-29T10:35:51.371Z,61.64
2023-03-29T10:36:59.932Z,60.62
2023-03-29T10:38:08.149Z,60.94
2023-03-29T10:39:14.834Z,60.52
2023-03-29T10:40:22.263Z,59.84
2023-03-29T10:41:27.335Z,60.66
2023-03-29T10:42:29.925Z,60.66
2023-03-29T10:43:38.716Z,60.34
2023-03-29T10:44:42.387Z,61.16
2023-03-29T10:45:50.075Z,62.16
2023-03-29T10:46:53.961Z,62.42
2023-03-29T10:47:58.295Z,62.70
2023-03-29T10:49:06.347Z,63.43
2023-03-29T10:50:15.494Z,63.93
2023-03-29T10:51:20.590Z,63.39
2023-03-29T10:52:24.236Z,63.33
2023-03-29T10:53:28.867Z,62.50
2023-03-29T10:54:32.805Z,62.40
2023-03-29T10:55:42.794Z,62.73
2023-03-29T10:56:52.488Z,62.83
2023-03-29T10:58:07.668Z,63.02
2023-03-29T10:59:25.642Z,62.56
2023-03-29T11:00:36.032Z,61.82
2023-03-29T11:01:52.615Z,62.60
2023-03-29T11:03:23.480Z,61.58
2023-03-29T11:04:38.842Z,60.88
2023-03-29T11:05:49.273Z,60.53
2023-03-29T11:07:14.499Z,60.05
2023-03-29T11:08:32.038Z,60.76
2023-03-29T11:09:48.868Z,61.34
2023-03-29T11:11:02.707Z,62.11
2023-03-29T11:12:16.070Z,63.16
2023-03-29T11:13:27.611Z,62.83
2023-03-29T11:14:39.010Z,62.47
2023-03-29T11:15:59.754Z,63.02
2023-03-29T11:17:14.486Z,62.72
2023-03-29T11:18:42.905Z,63.19
2023-03-29T11:20:14.522Z,63.25
2023-03-29T11:21:28.497Z,62.63
2023-03-29T11:22:42.665Z,61.76
2023-03-29T11:23:55.959Z,61.16
2023-03-29T11:25:21.820Z,60.32
2023-03-29T11:26:29.077Z,60.88
2023-03-29T11:27:39.075Z,61.24
2023-03-29T11:28:49.527Z,60.80
2023-03-29T11:30:06.729Z,60.67
2023-03-29T11:31:20.608Z,60.92
2023-03-29T11:32:32.465Z,62.33
2023-03-29T11:33:49.039Z,60.70
2023-03-29T11:35:04.594Z,60.76
2023-03-29T11:36:13.960Z,60.72
2023-03-29T11:37:23.030Z,61.39
2023-03-29T11:38:33.842Z,61.39
2023-03-29T11:39:50.287Z,61.86
2023-03-29T11:41:02.432Z,61.84
2023-03-29T11:42:13.688Z,61.17
2023-03-29T11:43:21.137Z,61.19
2023-03-29T11:44:28.510Z,61.39
2023-03-29T11:45:35.970Z,60.64
2023-03-29T11:46:45.626Z,60.55
2023-03-29T11:47:50.931Z,60.40
2023-03-29T11:49:00.920Z,60.50
2023-03-29T11:50:11.293Z,60.27
2023-03-29T11:51:22.722Z,59.55
2023-03-29T11:52:31.682Z,59.27
2023-03-29T11:53:43.547Z,59.64
2023-03-29T11:54:53.277Z,60.67
2023-03-29T11:55:57.244Z,60.59
2023-03-29T11:57:04.185Z,60.49
2023-03-29T11:58:13.010Z,59.65
2023-03-29T11:59:22.565Z,60.40
2023-03-29T12:00:30.673Z,59.95
2023-03-29T12:01:40.198Z,60.91
2023-03-29T12:02:48.290Z,60.24
2023-03-29T12:03:57.272Z,60.29
2023-03-29T12:05:08.232Z,60.49
2023-03-29T12:06:19.054Z,61.67
2023-03-29T12:07:29.502Z,61.87
2023-03-29T12:08:35.769Z,62.31
2023-03-29T12:09:47.035Z,62.57
2023-03-29T12:10:57.643Z,61.41
2023-03-29T12:12:09.830Z,62.21
2023-03-29T12:13:20.904Z,61.96
2023-03-29T12:14:29.659Z,61.15
2023-03-29T12:15:37.136Z,61.17
2023-03-29T12:16:45.117Z,61.17
2023-03-29T12:17:53.784Z,62.38
2023-03-29T12:19:01.732Z,61.73
2023-03-29T12:20:12.558Z,61.58
2023-03-29T12:21:20.282Z,61.33
2023-03-29T12:22:23.318Z,61.52
2023-03-29T12:23:27.569Z,60.48
2023-03-29T12:24:33.955Z,59.98
2023-03-29T12:25:52.287Z,61.14
2023-03-29T12:27:20.921Z,60.60
2023-03-29T12:28:42.666Z,60.82
2023-03-29T12:30:01.400Z,60.36
2023-03-29T12:31:18.863Z,61.64
2023-03-29T12:32:35.281Z,62.45
2023-03-29T12:34:26.283Z,62.12
2023-03-29T12:35:39.225Z,62.26
2023-03-29T12:37:04.861Z,62.38
2023-03-29T12:38:17.183Z,62.54
2023-03-29T12:39:21.781Z,62.15
2023-03-29T12:40:28.535Z,61.84
2023-03-29T12:41:38.622Z,61.75
2023-03-29T12:42:46.387Z,62.25
2023-03-29T12:43:50.856Z,62.04
2023-03-29T12:44:59.213Z,61.74
2023-03-29T12:46:08.949Z,60.69
2023-03-29T12:47:21.650Z,60.60
2023-03-29T12:48:28.007Z,60.96
2023-03-29T12:49:35.712Z,60.41
2023-03-29T12:50:47.430Z,60.73
2023-03-29T12:51:51.512Z,60.71
2023-03-29T12:52:54.269Z,60.55
2023-03-29T12:54:07.581Z,61.27
2023-03-29T12:55:25.363Z,61.49
2023-03-29T12:56:40.505Z,62.58
2023-03-29T12:57:47.681Z,60.98
2023-03-29T12:58:56.315Z,61.22
2023-03-29T13:00:12.971Z,61.64
2023-03-29T13:01:29.754Z,59.97
2023-03-29T13:02:39.598Z,59.97
2023-03-29T13:03:48.622Z,60.97
2023-03-29T13:04:55.542Z,62.74
2023-03-29T13:06:05.582Z,63.68
2023-03-29T13:07:15.689Z,62.39
2023-03-29T13:08:23.136Z,62.54
2023-03-29T13:09:30.171Z,62.36
2023-03-29T13:10:41.360Z,62.05
2023-03-29T13:11:45.212Z,61.67
2023-03-29T13:12:51.136Z,60.92
2023-03-29T13:13:55.002Z,60.61
2023-03-29T13:15:00.638Z,61.63
2023-03-29T13:16:16.706Z,60.91
2023-03-29T13:17:26.224Z,61.28
2023-03-29T13:18:43.718Z,61.00
2023-03-29T13:19:52.240Z,62.24
2023-03-29T13:21:03.799Z,62.42
2023-03-29T13:22:23.811Z,62.04
2023-03-29T13:23:36.531Z,62.21
2023-03-29T13:25:04.468Z,62.70
2023-03-29T13:26:19.864Z,62.30
2023-03-29T13:27:37.385Z,61.54
2023-03-29T13:28:58.296Z,61.79
2023-03-29T13:30:27.834Z,62.21
2023-03-29T13:31:37.728Z,61.94
2023-03-29T13:32:49.915Z,63.39
2023-03-29T13:34:03.967Z,63.10
2023-03-29T13:35:18.537Z,62.01
2023-03-29T13:36:36.687Z,62.12
2023-03-29T13:37:49.032Z,62.62
2023-03-29T13:38:56.133Z,63.17
2023-03-29T13:40:00.416Z,63.28
2023-03-29T13:41:05.982Z,63.00
2023-03-29T13:42:19.634Z,63.08
2023-03-29T13:43:31.071Z,62.71
2023-03-29T13:44:44.560Z,64.72
2023-03-29T13:46:05.195Z,64.89
2023-03-29T13:47:28.940Z,65.52
2023-03-29T13:48:49.420Z,65.66
2023-03-29T13:49:58.465Z,65.77
2023-03-29T13:51:08.297Z,66.13
2023-03-29T13:52:17.893Z,65.69
2023-03-29T13:53:30.446Z,66.62
2023-03-29T13:54:39.620Z,66.97
2023-03-29T13:55:48.799Z,66.47
2023-03-29T13:57:01.610Z,67.22
2023-03-29T13:58:11.806Z,66.55
2023-03-29T13:59:19.734Z,67.10
2023-03-29T14:00:27.278Z,67.66
2023-03-29T14:01:37.859Z,67.56
2023-03-29T14:02:47.417Z,67.92
2023-03-29T14:03:53.782Z,67.84
2023-03-29T14:04:59.963Z,68.06
2023-03-29T14:06:04.910Z,67.83
2023-03-29T14:07:10.837Z,67.72
2023-03-29T14:08:21.501Z,67.51
2023-03-29T14:09:31.855Z,68.18
2023-03-29T14:10:39.702Z,68.95
2023-03-29T14:11:45.956Z,69.05
2023-03-29T14:12:50.051Z,68.34
2023-03-29T14:13:54.104Z,68.54
2023-03-29T14:15:03.724Z,68.22
2023-03-29T14:16:10.500Z,67.66
2023-03-29T14:17:21.324Z,68.67
2023-03-29T14:18:27.125Z,67.91
2023-03-29T14:19:32.778Z,67.76
2023-03-29T14:20:36.269Z,67.51
2023-03-29T14:21:38.776Z,68.62
2023-03-29T14:22:44.549Z,68.19
2023-03-29T14:23:55.102Z,67.94
2023-03-29T14:25:02.840Z,67.52
2023-03-29T14:26:10.714Z,68.22
2023-03-29T14:27:14.548Z,68.34
2023-03-29T14:28:22.847Z,68.52
2023-03-29T14:29:32.687Z,68.24
2023-03-29T14:30:36.280Z,68.52
2023-03-29T14:31:42.101Z,68.64
2023-03-29T14:32:44.785Z,68.37
2023-03-29T14:33:53.792Z,69.19
2023-03-29T14:34:58.188Z,70.00
2023-03-29T14:36:05.296Z,69.69
2023-03-29T14:37:11.619Z,70.19
2023-03-29T14:38:16.767Z,69.21
2023-03-29T14:39:21.392Z,68.98
2023-03-29T14:40:28.480Z,69.07
2023-03-29T14:41:33.682Z,69.21
2023-03-29T14:42:38.933Z,69.12
2023-03-29T14:43:42.763Z,68.92
2023-03-29T14:44:45.269Z,69.07
2023-03-29T14:45:49.426Z,69.60
2023-03-29T14:46:53.591Z,69.97
2023-03-29T14:47:58.162Z,70.44
2023-03-29T14:49:02.393Z,69.54
2023-03-29T14:50:07.339Z,70.19
2023-03-29T14:51:11.683Z,69.05
2023-03-29T14:52:14.907Z,68.48
2023-03-29T14:53:21.367Z,68.97
2023-03-29T14:54:28.748Z,69.96
2023-03-29T14:55:34.472Z,68.70
2023-03-29T14:56:38.616Z,67.75
2023-03-29T14:57:43.101Z,67.37
2023-03-29T14:58:48.307Z,67.85
2023-03-29T14:59:58.346Z,68.65
2023-03-29T15:01:06.474Z,68.38
2023-03-29T15:02:23.822Z,67.90
2023-03-29T15:03:27.783Z,67.56
2023-03-29T15:04:34.968Z,68.04
2023-03-29T15:05:41.298Z,68.29
2023-03-29T15:06:47.244Z,68.46
2023-03-29T15:07:51.040Z,69.00
2023-03-29T15:09:05.500Z,69.47
2023-03-29T15:10:18.740Z,68.88
2023-03-29T15:11:24.858Z,69.09
2023-03-29T15:12:30.855Z,68.16
2023-03-29T15:13:34.447Z,68.41
2023-03-29T15:14:38.315Z,68.39
2023-03-29T15:15:42.011Z,69.20
2023-03-29T15:16:47.522Z,69.32
2023-03-29T15:17:52.760Z,69.57
2023-03-29T15:18:56.741Z,68.57
2023-03-29T15:20:01.679Z,68.28
2023-03-29T15:21:06.732Z,68.26
2023-03-29T15:22:11.954Z,67.06
2023-03-29T15:23:25.490Z,68.04
2023-03-29T15:24:32.164Z,69.24
2023-03-29T15:25:36.788Z,70.46
2023-03-29T15:26:43.198Z,71.49
2023-03-29T15:27:49.200Z,71.68
2023-03-29T15:28:56.068Z,72.77
2023-03-29T15:30:04.171Z,73.60
2023-03-29T15:31:12.409Z,74.10
2023-03-29T15:32:22.986Z,75.09
2023-03-29T15:33:33.014Z,75.43
2023-03-29T15:34:38.483Z,75.39
2023-03-29T15:35:41.265Z,75.21
2023-03-29T15:36:46.602Z,75.04
2023-03-29T15:37:49.495Z,74.92
2023-03-29T15:38:53.389Z,75.13
2023-03-29T15:39:56.900Z,75.49
2023-03-29T15:41:01.891Z,75.27
2023-03-29T15:42:07.978Z,75.58
2023-03-29T15:43:12.463Z,75.24
2023-03-29T15:44:18.800Z,75.09
2023-03-29T15:45:22.550Z,75.29
2023-03-29T15:46:26.455Z,75.52
2023-03-29T15:47:30.283Z,75.11
2023-03-29T15:48:34.670Z,75.56
2023-03-29T15:49:37.498Z,74.97
2023-03-29T15:50:41.026Z,75.17
2023-03-29T15:51:44.681Z,75.14
2023-03-29T15:52:47.241Z,75.06
2023-03-29T15:53:50.992Z,75.07
2023-03-29T15:54:53.341Z,75.44
2023-03-29T15:56:01.673Z,75.21
2023-03-29T15:57:08.055Z,75.56
2023-03-29T15:58:15.741Z,76.00
2023-03-29T15:59:19.618Z,76.28
2023-03-29T16:00:22.642Z,77.24
2023-03-29T16:01:35.795Z,76.87
2023-03-29T16:02:38.872Z,76.85
2023-03-29T16:03:47.618Z,76.94
2023-03-29T16:04:52.557Z,76.80
2023-03-29T16:05:57.089Z,76.50
2023-03-29T16:07:01.500Z,76.72
2023-03-29T16:08:05.213Z,76.75
2023-03-29T16:09:09.004Z,77.11
2023-03-29T16:10:12.637Z,77.18
2023-03-29T16:11:15.468Z,77.35
2023-03-29T16:12:20.707Z,77.21
2023-03-29T16:13:23.065Z,76.92
2023-03-29T16:14:31.349Z,76.91
2023-03-29T16:15:37.674Z,76.53
2023-03-29T16:16:40.300Z,76.66
2023-03-29T16:17:43.918Z,76.94
2023-03-29T16:18:46.449Z,76.90
2023-03-29T16:19:50.155Z,77.15
2023-03-29T16:20:53.762Z,76.89
2023-03-29T16:21:57.297Z,76.74
2023-03-29T16:22:59.723Z,75.58
2023-03-29T16:24:03.950Z,76.29
2023-03-29T16:25:13.988Z,77.45
2023-03-29T16:26:18.492Z,77.98
2023-03-29T16:27:22.590Z,78.11
2023-03-29T16:28:26.450Z,78.31
2023-03-29T16:29:30.404Z,77.45
2023-03-29T16:30:34.403Z,77.21
2023-03-29T16:31:36.979Z,76.90
2023-03-29T16:32:40.832Z,76.78
2023-03-29T16:33:44.581Z,76.47
2023-03-29T16:34:47.376Z,76.16
2023-03-29T16:35:51.020Z,76.72
2023-03-29T16:36:53.880Z,76.67
2023-03-29T16:37:57.905Z,76.17
2023-03-29T16:39:00.672Z,76.11
2023-03-29T16:40:07.815Z,77.03
2023-03-29T16:41:15.637Z,77.56
2023-03-29T16:42:19.127Z,77.82
2023-03-29T16:43:22.881Z,77.33
2023-03-29T16:44:28.064Z,77.47
2023-03-29T16:45:30.349Z,77.64
2023-03-29T16:46:34.272Z,77.62
2023-03-29T16:47:37.870Z,77.20
2023-03-29T16:48:40.367Z,77.32
2023-03-29T16:49:45.847Z,77.46
2023-03-29T16:50:49.502Z,77.93
2023-03-29T16:51:53.258Z,78.22
2023-03-29T16:52:56.858Z,78.30
2023-03-29T16:54:00.766Z,78.42
2023-03-29T16:55:04.197Z,78.79
2023-03-29T16:56:09.080Z,78.95
2023-03-29T16:57:11.480Z,79.02
2023-03-29T16:58:15.593Z,79.07
2023-03-29T16:59:19.753Z,79.21
2023-03-29T17:00:23.768Z,79.82
2023-03-29T17:01:27.956Z,80.10
2023-03-29T17:02:31.397Z,80.06
2023-03-29T17:03:35.155Z,79.91
2023-03-29T17:04:38.775Z,79.67
2023-03-29T17:05:48.472Z,79.76
2023-03-29T17:06:52.272Z,79.81
2023-03-29T17:07:56.982Z,80.21
2023-03-29T17:09:00.991Z,80.35
2023-03-29T17:10:04.902Z,80.23
2023-03-29T17:11:08.604Z,79.69
2023-03-29T17:12:12.440Z,79.69
2023-03-29T17:13:14.981Z,79.78
2023-03-29T17:14:18.894Z,79.55
2023-03-29T17:15:24.368Z,79.78
2023-03-29T17:16:29.360Z,80.07
2023-03-29T17:17:33.122Z,80.03
2023-03-29T17:18:36.856Z,80.12
2023-03-29T17:19:40.262Z,80.52
2023-03-29T17:20:43.724Z,80.56
2023-03-29T17:21:47.235Z,80.28
2023-03-29T17:22:52.361Z,80.21
2023-03-29T17:23:55.816Z,79.81
2023-03-29T17:24:59.127Z,79.97
2023-03-29T17:26:02.340Z,79.90
2023-03-29T17:27:06.404Z,79.94
2023-03-29T17:28:08.927Z,80.03
2023-03-29T17:29:12.268Z,80.21
2023-03-29T17:30:16.770Z,80.26
2023-03-29T17:31:21.708Z,80.23
2023-03-29T17:32:24.158Z,80.41
2023-03-29T17:33:27.771Z,80.51
2023-03-29T17:34:31.038Z,80.91
2023-03-29T17:35:34.453Z,81.21
2023-03-29T17:36:37.855Z,81.19
2023-03-29T17:37:40.409Z,81.08
2023-03-29T17:38:43.828Z,81.25
2023-03-29T17:39:46.266Z,81.55
2023-03-29T17:40:54.298Z,81.02
2023-03-29T17:41:57.130Z,81.02
2023-03-29T17:43:00.722Z,81.45
2023-03-29T17:44:04.326Z,81.25
2023-03-29T17:45:09.034Z,81.44
2023-03-29T17:46:11.900Z,81.72
2023-03-29T17:47:17.078Z,81.81
2023-03-29T17:48:19.801Z,82.47
2023-03-29T17:49:23.420Z,82.16
2023-03-29T17:50:26.396Z,81.96
2023-03-29T17:51:29.885Z,81.78
2023-03-29T17:52:33.454Z,81.96
2023-03-29T17:53:36.306Z,82.00
2023-03-29T17:54:39.639Z,81.83
2023-03-29T17:55:43.248Z,82.11
2023-03-29T17:56:47.608Z,82.27
2023-03-29T17:57:50.243Z,82.33
2023-03-29T17:58:53.806Z,82.20
2023-03-29T17:59:57.538Z,82.13
2023-03-29T18:01:01.052Z,82.14
2023-03-29T18:02:05.617Z,82.45
2023-03-29T18:03:10.730Z,82.11
2023-03-29T18:04:14.179Z,82.01
2023-03-29T18:05:16.807Z,81.91
2023-03-29T18:06:21.087Z,82.28
2023-03-29T18:07:23.541Z,82.34
2023-03-29T18:08:27.335Z,82.23
2023-03-29T18:09:31.108Z,82.25
2023-03-29T18:10:35.230Z,82.30
2023-03-29T18:11:38.676Z,82.19
2023-03-29T18:12:42.265Z,82.28
2023-03-29T18:13:44.979Z,82.01
2023-03-29T18:14:48.800Z,81.91
2023-03-29T18:15:56.771Z,81.97
2023-03-29T18:17:00.353Z,81.84
2023-03-29T18:18:04.015Z,81.75
2023-03-29T18:19:10.860Z,81.76
2023-03-29T18:20:13.760Z,82.01
2023-03-29T18:21:18.506Z,81.76
2023-03-29T18:22:21.203Z,81.95
2023-03-29T18:23:24.602Z,81.97
2023-03-29T18:24:27.606Z,82.06
2023-03-29T18:25:31.360Z,82.18
2023-03-29T18:26:33.927Z,82.18
2023-03-29T18:27:37.534Z,82.25
2023-03-29T18:28:41.035Z,82.20
2023-03-29T18:29:45.035Z,82.38
2023-03-29T18:30:50.983Z,82.39
2023-03-29T18:31:54.546Z,82.81
2023-03-29T18:32:58.544Z,82.82
2023-03-29T18:34:02.824Z,82.48
2023-03-29T18:35:08.836Z,82.55
2023-03-29T18:36:13.324Z,82.89
2023-03-29T18:37:17.691Z,82.76
2023-03-29T18:38:22.628Z,82.62
2023-03-29T18:39:27.456Z,82.50
2023-03-29T18:40:29.873Z,82.31
2023-03-29T18:41:33.563Z,82.14
2023-03-29T18:42:37.609Z,82.39
2023-03-29T18:43:41.562Z,82.37
2023-03-29T18:44:45.085Z,82.40
2023-03-29T18:45:47.769Z,82.25
2023-03-29T18:46:51.656Z,81.95
2023-03-29T18:47:55.034Z,81.95
2023-03-29T18:48:57.740Z,82.06
2023-03-29T18:50:02.613Z,81.76
2023-03-29T18:51:07.733Z,81.61
2023-03-29T18:52:11.681Z,81.39
2023-03-29T18:53:14.973Z,81.24
2023-03-29T18:54:18.534Z,81.29
2023-03-29T18:55:21.020Z,81.13
2023-03-29T18:56:24.738Z,81.01
2023-03-29T18:57:28.147Z,80.64
2023-03-29T18:58:30.838Z,80.81
2023-03-29T18:59:37.198Z,80.88
2023-03-29T19:00:40.744Z,81.05
2023-03-29T19:01:45.093Z,81.00
2023-03-29T19:02:48.766Z,80.86
2023-03-29T19:03:51.251Z,80.63
2023-03-29T19:04:54.815Z,80.40
2023-03-29T19:05:58.824Z,80.22
2023-03-29T19:07:03.750Z,79.96
2023-03-29T19:08:09.190Z,79.98
2023-03-29T19:09:12.913Z,79.98
2023-03-29T19:10:15.705Z,79.85
2023-03-29T19:11:19.249Z,79.76
2023-03-29T19:12:22.595Z,80.02
2023-03-29T19:13:25.162Z,80.21
2023-03-29T19:14:29.523Z,80.26
2023-03-29T19:15:34.084Z,80.07
2023-03-29T19:16:37.612Z,80.31
2023-03-29T19:17:41.380Z,80.30
2023-03-29T19:18:43.854Z,80.42
2023-03-29T19:19:47.285Z,80.70
2023-03-29T19:20:51.068Z,80.96
2023-03-29T19:21:55.846Z,81.01
2023-03-29T19:23:02.025Z,80.95
2023-03-29T19:24:05.771Z,81.02
2023-03-29T19:25:10.325Z,81.16
2023-03-29T19:26:13.561Z,81.24
2023-03-29T19:27:17.068Z,81.20
2023-03-29T19:28:19.395Z,81.18
2023-03-29T19:29:23.093Z,81.00
2023-03-29T19:30:26.040Z,81.00
2023-03-29T19:31:30.312Z,81.05
2023-03-29T19:32:33.810Z,81.15
2023-03-29T19:33:37.397Z,81.38
2023-03-29T19:34:41.017Z,81.40
2023-03-29T19:35:45.730Z,81.83
2023-03-29T19:36:49.488Z,81.67
2023-03-29T19:37:51.978Z,81.87
2023-03-29T19:38:56.804Z,82.06
2023-03-29T19:40:00.303Z,82.57
2023-03-29T19:41:03.887Z,82.49
2023-03-29T19:42:07.505Z,82.63
2023-03-29T19:43:16.445Z,82.91
2023-03-29T19:44:22.332Z,83.04
2023-03-29T19:45:24.837Z,83.04
2023-03-29T19:46:29.195Z,83.02
2023-03-29T19:47:31.810Z,82.93
2023-03-29T19:48:35.482Z,83.00
2023-03-29T19:49:38.652Z,82.95
2023-03-29T19:50:43.073Z,82.90
2023-03-29T19:51:48.467Z,82.64
2023-03-29T19:52:51.367Z,82.53
2023-03-29T19:53:57.029Z,82.41
2023-03-29T19:54:59.418Z,82.62
2023-03-29T19:56:04.412Z,82.68
2023-03-29T19:57:09.340Z,82.81
2023-03-29T19:58:13.242Z,82.98
2023-03-29T19:59:17.910Z,82.76
2023-03-29T20:00:24.606Z,82.82
2023-03-29T20:01:27.414Z,82.77
2023-03-29T20:02:31.462Z,82.95
2023-03-29T20:03:34.552Z,82.77
2023-03-29T20:04:38.772Z,82.52
2023-03-29T20:05:41.174Z,81.99
2023-03-29T20:06:44.744Z,81.43
2023-03-29T20:07:47.254Z,81.31
2023-03-29T20:08:50.785Z,81.12
2023-03-29T20:09:55.976Z,80.99
2023-03-29T20:10:59.924Z,81.01
2023-03-29T20:12:02.509Z,80.64
2023-03-29T20:13:06.774Z,80.57
2023-03-29T20:14:09.471Z,80.36
2023-03-29T20:15:13.305Z,80.14
2023-03-29T20:16:17.111Z,79.76
2023-03-29T20:17:21.242Z,79.48
2023-03-29T20:18:24.706Z,79.26
2023-03-29T20:19:30.287Z,78.82
2023-03-29T20:20:35.780Z,78.34
2023-03-29T20:21:39.075Z,78.05
2023-03-29T20:22:45.421Z,77.65
2023-03-29T20:23:49.085Z,77.37
2023-03-29T20:24:51.333Z,77.07
2023-03-29T20:25:57.233Z,76.66
2023-03-29T20:26:59.624Z,76.56
2023-03-29T20:28:03.152Z,76.55
2023-03-29T20:29:06.477Z,76.06
2023-03-29T20:30:12.127Z,76.06
2023-03-29T20:31:14.594Z,75.99
2023-03-29T20:32:18.309Z,76.23
2023-03-29T20:33:22.857Z,76.19
2023-03-29T20:34:26.496Z,76.36
2023-03-29T20:35:29.208Z,76.66
2023-03-29T20:36:32.794Z,76.72
2023-03-29T20:37:35.619Z,76.62
2023-03-29T20:38:39.387Z,76.52
2023-03-29T20:39:43.515Z,76.46
2023-03-29T20:40:47.663Z,76.24
2023-03-29T20:41:55.756Z,76.38
2023-03-29T20:42:59.417Z,76.02
2023-03-29T20:44:03.248Z,75.88
2023-03-29T20:45:09.129Z,76.11
2023-03-29T20:46:14.831Z,75.79
2023-03-29T20:47:19.439Z,75.24
2023-03-29T20:48:23.573Z,75.28
2023-03-29T20:49:27.381Z,74.89
2023-03-29T20:50:30.093Z,74.89
2023-03-29T20:51:34.336Z,74.71
2023-03-29T20:52:37.637Z,74.39
2023-03-29T20:53:42.943Z,74.22
2023-03-29T20:54:46.803Z,74.18
2023-03-29T20:55:49.228Z,74.12
2023-03-29T20:56:56.076Z,74.07
2023-03-29T20:57:58.780Z,74.11
2023-03-29T20:59:04.182Z,74.27
2023-03-29T21:00:12.629Z,74.07
2023-03-29T21:01:16.316Z,74.10
2023-03-29T21:02:22.085Z,74.07
2023-03-29T21:03:25.853Z,74.37
2023-03-29T21:04:29.946Z,74.13
2023-03-29T21:05:33.751Z,74.20
2023-03-29T21:06:39.711Z,73.79
2023-03-29T21:07:44.949Z,73.61
2023-03-29T21:08:49.025Z,73.59
2023-03-29T21:09:52.753Z,73.22
2023-03-29T21:10:56.396Z,72.80
2023-03-29T21:12:01.654Z,72.60
2023-03-29T21:13:06.179Z,72.58
2023-03-29T21:14:09.547Z,72.41
2023-03-29T21:15:14.716Z,72.37
2023-03-29T21:16:17.154Z,72.07
2023-03-29T21:17:20.713Z,72.01
2023-03-29T21:18:23.713Z,71.68
2023-03-29T21:19:27.464Z,71.60
2023-03-29T21:20:32.461Z,71.62
2023-03-29T21:21:36.156Z,71.27
2023-03-29T21:22:42.904Z,71.33
2023-03-29T21:23:45.563Z,71.19
2023-03-29T21:24:49.081Z,71.56
2023-03-29T21:25:51.616Z,71.87
2023-03-29T21:26:55.059Z,71.97
2023-03-29T21:27:59.019Z,72.23
2023-03-29T21:29:02.976Z,72.45
2023-03-29T21:30:08.685Z,72.86
2023-03-29T21:31:12.092Z,72.76
2023-03-29T21:32:14.588Z,72.29
2023-03-29T21:33:18.243Z,72.12
2023-03-29T21:34:22.362Z,71.92
2023-03-29T21:35:25.083Z,71.49
2023-03-29T21:36:29.003Z,70.08
2023-03-29T21:37:31.428Z,69.29
2023-03-29T21:38:34.870Z,68.48
2023-03-29T21:39:37.337Z,67.89
2023-03-29T21:40:41.197Z,67.24
2023-03-29T21:41:43.681Z,66.72
2023-03-29T21:42:47.297Z,64.74
2023-03-29T21:43:51.617Z,64.83
2023-03-29T21:44:54.959Z,64.70
2023-03-29T21:45:57.975Z,64.45
2023-03-29T21:47:01.595Z,64.13
2023-03-29T21:48:04.342Z,63.85
2023-03-29T21:49:08.296Z,64.45
2023-03-29T21:50:11.803Z,65.21
2023-03-29T21:51:15.641Z,66.23
2023-03-29T21:52:17.843Z,67.32
2023-03-29T21:53:21.652Z,68.28
2023-03-29T21:54:25.232Z,68.84
2023-03-29T21:55:27.998Z,69.66
2023-03-29T21:56:31.594Z,70.08
2023-03-29T21:57:35.193Z,69.81
2023-03-29T21:58:38.780Z,70.07
2023-03-29T21:59:42.591Z,70.19
2023-03-29T22:00:47.104Z,70.36
2023-03-29T22:01:49.946Z,70.91
2023-03-29T22:02:53.684Z,70.88
2023-03-29T22:03:56.961Z,70.96
2023-03-29T22:05:00.525Z,71.50
2023-03-29T22:06:05.710Z,71.48
2023-03-29T22:07:10.842Z,71.73
2023-03-29T22:08:13.322Z,71.95
2023-03-29T22:09:16.850Z,72.05
2023-03-29T22:10:23.076Z,72.70
2023-03-29T22:11:28.750Z,72.90
2023-03-29T22:12:32.501Z,72.85
2023-03-29T22:13:36.441Z,72.83
2023-03-29T22:14:39.516Z,72.79
2023-03-29T22:15:45.278Z,72.57
2023-03-29T22:16:47.965Z,72.52
2023-03-29T22:17:53.489Z,72.49
2023-03-29T22:18:55.968Z,72.40
2023-03-29T22:19:59.621Z,72.24
2023-03-29T22:21:02.480Z,72.46
2023-03-29T22:22:07.371Z,72.17
2023-03-29T22:23:09.876Z,72.20
2023-03-29T22:24:13.581Z,72.53
2023-03-29T22:25:16.526Z,72.64
2023-03-29T22:26:22.391Z,72.23
2023-03-29T22:27:24.883Z,72.07
2023-03-29T22:28:28.226Z,72.04
2023-03-29T22:29:30.783Z,72.04
2023-03-29T22:30:34.042Z,71.77
2023-03-29T22:31:39.628Z,71.59
2023-03-29T22:32:44.077Z,70.93
2023-03-29T22:33:47.342Z,70.69
2023-03-29T22:34:51.152Z,70.69
2023-03-29T22:35:53.506Z,70.72
2023-03-29T22:36:57.032Z,70.29
2023-03-29T22:37:59.450Z,70.13
2023-03-29T22:39:03.039Z,69.23
2023-03-29T22:40:09.321Z,68.69
2023-03-29T22:41:13.601Z,67.88
2023-03-29T22:42:16.309Z,67.41
2023-03-29T22:43:21.687Z,67.36
2023-03-29T22:44:25.794Z,66.77
2023-03-29T22:45:29.464Z,65.65
2023-03-29T22:46:34.307Z,65.30
2023-03-29T22:47:40.910Z,65.01
2023-03-29T22:48:44.717Z,64.16
2023-03-29T22:49:50.295Z,63.53
2023-03-29T22:50:52.752Z,63.17
2023-03-29T22:51:56.270Z,62.31
2023-03-29T22:52:58.522Z,62.17
2023-03-29T22:54:01.788Z,61.71
2023-03-29T22:55:04.492Z,61.50
2023-03-29T22:56:09.551Z,60.73
2023-03-29T22:57:12.642Z,60.03
2023-03-29T22:58:16.939Z,59.83
2023-03-29T22:59:19.623Z,59.09
2023-03-29T23:00:23.551Z,59.55
2023-03-29T23:01:27.314Z,57.69
2023-03-29T23:02:29.701Z,57.54
2023-03-29T23:03:34.910Z,56.96
2023-03-29T23:04:38.821Z,56.80
2023-03-29T23:05:42.756Z,56.63
2023-03-29T23:06:45.138Z,56.28
2023-03-29T23:07:49.006Z,55.79
2023-03-29T23:08:51.409Z,55.64
2023-03-29T23:09:55.366Z,55.84
2023-03-29T23:10:58.031Z,55.44
2023-03-29T23:12:01.891Z,55.51
2023-03-29T23:13:08.788Z,55.65
2023-03-29T23:14:12.661Z,55.45
2023-03-29T23:15:16.275Z,55.69
2023-03-29T23:16:21.309Z,55.58
2023-03-29T23:17:24.208Z,55.76
2023-03-29T23:18:29.657Z,55.91
2023-03-29T23:19:33.787Z,55.79
2023-03-29T23:20:37.055Z,55.73
2023-03-29T23:21:39.755Z,55.87
2023-03-29T23:22:43.887Z,55.88
2023-03-29T23:23:47.081Z,56.21
2023-03-29T23:24:50.490Z,56.17
2023-03-29T23:25:53.716Z,55.98
2023-03-29T23:26:59.422Z,56.13
2023-03-29T23:28:01.927Z,55.80
2023-03-29T23:29:05.314Z,55.70
2023-03-29T23:30:08.940Z,55.77
2023-03-29T23:31:14.120Z,55.81
2023-03-29T23:32:16.834Z,55.80
2023-03-29T23:33:22.220Z,56.05
2023-03-29T23:34:26.148Z,55.82
2023-03-29T23:35:30.186Z,55.97
2023-03-29T23:36:33.883Z,56.13
2023-03-29T23:37:38.093Z,56.17
2023-03-29T23:38:42.507Z,56.29
2023-03-29T23:39:45.139Z,56.26
2023-03-29T23:40:59.213Z,56.88
2023-03-29T23:42:03.571Z,57.20
2023-03-29T23:43:07.149Z,57.39
2023-03-29T23:44:10.435Z,57.23
2023-03-29T23:45:15.977Z,57.58
2023-03-29T23:46:19.698Z,57.68
2023-03-29T23:47:23.735Z,58.05
2023-03-29T23:48:27.511Z,57.76
2023-03-29T23:49:32.023Z,58.16
2023-03-29T23:50:36.195Z,57.96
2023-03-29T23:51:42.782Z,57.99
2023-03-29T23:52:46.836Z,58.21
2023-03-29T23:53:50.690Z,57.98
2023-03-29T23:54:53.134Z,57.99
2023-03-29T23:55:58.552Z,58.02
2023-03-29T23:57:01.605Z,58.46
2023-03-29T23:58:05.460Z,58.28
2023-03-29T23:59:07.899Z,58.50
